Time;durP1;ratioP1;P1;durP2;ratioP2;P2;SDS_P1;SDS_P2;PMS_P1;PMS_P2;Temp;Humidity;BMP_temperature;BMP_pressure;BME280_temperature;BME280_humidity;BME280_pressure;Samples;Min_cycle;Max_cycle;Signal;HPM_P1;HPM_P2
2022/10/12 00:00:42;;;;;;;;;;;;;;;9.68;62.29;102083.38;5011879;28;19922;-77
2022/10/12 00:03:08;;;;;;;;;;;;;;;9.58;61.98;102079.00;5009974;28;19980;-77
2022/10/12 00:05:35;;;;;;;;;;;;;;;9.54;62.51;102074.69;5009452;28;20222;-77
2022/10/12 00:08:00;;;;;;;;;;;;;;;9.57;61.65;102077.28;4993575;28;19984;-76
2022/10/12 00:10:26;;;;;;;;;;;;;;;9.55;62.12;102066.88;5013786;28;19929;-77
2022/10/12 00:12:51;;;;;;;;;;;;;;;9.54;62.18;102067.75;5012748;28;19925;-77
2022/10/12 00:15:16;;;;;;;;;;;;;;;9.58;61.86;102069.50;5013262;28;19949;-77
2022/10/12 00:17:41;;;;;;;;;;;;;;;9.67;62.35;102069.53;5015740;28;19932;-76
2022/10/12 00:20:07;;;;;;;;;;;;;;;9.65;62.02;102080.75;5017915;28;20334;-77
2022/10/12 00:22:32;;;;;;;;;;;;;;;9.73;61.78;102077.34;5011972;28;19922;-76
2022/10/12 00:24:58;;;;;;;;;;;;;;;9.63;62.36;102079.91;5010031;28;20035;-77
2022/10/12 00:27:23;;;;;;;;;;;;;;;9.57;61.38;102070.34;5010052;28;19921;-77
2022/10/12 00:29:48;;;;;;;;;;;;;;;9.53;61.59;102075.53;5009056;28;20314;-77
2022/10/12 00:32:14;;;;;;;;;;;;;;;9.54;61.95;102069.50;5007371;28;19929;-77
2022/10/12 00:34:39;;;;;;;;;;;;;;;9.58;61.49;102069.50;5010430;28;19917;-76
2022/10/12 00:37:04;;;;;;;;;;;;;;;9.51;61.33;102080.72;5008301;28;19917;-77
2022/10/12 00:39:30;;;;;;;;;;;;;;;9.47;61.78;102078.09;5008067;28;19987;-77
2022/10/12 00:41:55;;;;;;;;;;;;;;;9.47;61.53;102084.16;5008779;28;19929;-77
2022/10/12 00:44:32;;;;;;;;;;;;;;;9.40;61.57;102073.72;5010091;28;20044;-77
2022/10/12 00:46:59;;;;;;;;;;;;;;;9.44;62.17;102072.88;5009326;28;19932;-76
2022/10/12 00:49:25;;;;;;;;;;;;;;;9.51;61.17;102074.66;5008971;28;19926;-77
2022/10/12 00:52:10;;;;;;;;;;;;;;;9.33;62.19;102076.28;5006510;28;19972;-77
2022/10/12 00:54:37;;;;;;;;;;;;;;;9.38;61.58;102071.13;4989881;28;19940;-77
2022/10/12 00:57:03;;;;;;;;;;;;;;;9.36;61.32;102078.06;4996274;28;20008;-77
2022/10/12 00:59:38;;;;;;;;;;;;;;;9.31;61.52;102074.56;5008080;28;20298;-76
2022/10/12 01:02:03;;;;;;;;;;;;;;;9.40;61.43;102082.38;5008527;28;20012;-77
2022/10/12 01:04:30;;;;;;;;;;;;;;;9.32;61.18;102084.94;5007123;28;20039;-77
2022/10/12 01:06:55;;;;;;;;;;;;;;;9.31;61.40;102087.50;5005435;28;19937;-77
2022/10/12 01:09:21;;;;;;;;;;;;;;;9.32;61.38;102089.25;5014152;28;19925;-77
2022/10/12 01:11:46;;;;;;;;;;;;;;;9.29;61.15;102086.66;5008404;28;19921;-77
2022/10/12 01:14:12;;;;;;;;;;;;;;;9.20;61.33;102089.19;5009851;28;19977;-77
2022/10/12 01:16:40;;;;;;;;;;;;;;;9.22;61.55;102087.47;5010862;28;20333;-76
2022/10/12 01:19:05;;;;;;;;;;;;;;;9.20;60.82;102082.28;5015284;28;20351;-77
2022/10/12 01:21:35;;;;;;;;;;;;;;;9.15;61.45;102081.41;5006551;28;20008;-77
2022/10/12 01:24:26;;;;;;;;;;;;;;;9.16;61.37;102074.47;5006727;28;19925;-77
2022/10/12 01:27:04;;;;;;;;;;;;;;;9.15;61.21;102075.34;5004823;28;19927;-77
2022/10/12 01:29:35;;;;;;;;;;;;;;;9.19;61.44;102070.16;5005990;28;19930;-77
2022/10/12 01:32:16;;;;;;;;;;;;;;;9.18;60.77;102059.81;5008008;28;19925;-76
2022/10/12 01:34:58;;;;;;;;;;;;;;;9.18;60.74;102059.81;4985849;28;19921;-77
2022/10/12 01:37:35;;;;;;;;;;;;;;;9.15;60.97;102054.59;5006570;28;20426;-77
2022/10/12 01:40:03;;;;;;;;;;;;;;;9.29;60.83;102059.00;5008572;28;19921;-77
2022/10/12 01:42:31;;;;;;;;;;;;;;;9.12;60.60;102060.66;5008715;28;19936;-77
2022/10/12 01:45:01;;;;;;;;;;;;;;;9.09;60.29;102065.81;5008525;28;19975;-76
2022/10/12 01:47:26;;;;;;;;;;;;;;;9.06;60.17;102055.44;5014085;28;19980;-76
2022/10/12 01:49:52;;;;;;;;;;;;;;;8.95;60.49;102064.84;5009009;28;19937;-77
2022/10/12 01:52:22;;;;;;;;;;;;;;;8.94;60.35;102072.63;5006165;28;19921;-77
2022/10/12 01:54:56;;;;;;;;;;;;;;;8.94;60.62;102064.84;5000556;28;19933;-77
2022/10/12 01:57:21;;;;;;;;;;;;;;;8.92;60.90;102064.81;5006799;28;19957;-77
2022/10/12 01:59:53;;;;;;;;;;;;;;;8.97;60.65;102064.88;4991920;28;20659;-77
2022/10/12 02:02:37;;;;;;;;;;;;;;;8.94;60.96;102055.34;5005784;28;19932;-76
2022/10/12 02:05:14;;;;;;;;;;;;;;;9.04;61.23;102054.53;5001915;28;20406;-77
2022/10/12 02:07:42;;;;;;;;;;;;;;;9.02;60.71;102051.06;4988287;28;20298;-77
2022/10/12 02:10:13;;;;;;;;;;;;;;;8.92;61.17;102036.31;5006998;28;19926;-77
2022/10/12 02:12:40;;;;;;;;;;;;;;;9.00;61.07;102036.38;5007700;28;20458;-77
2022/10/12 02:15:07;;;;;;;;;;;;;;;9.03;60.74;102039.00;5006910;28;20572;-77
2022/10/12 02:17:34;;;;;;;;;;;;;;;8.91;61.08;102034.59;5009348;28;20334;-76
2022/10/12 02:20:00;;;;;;;;;;;;;;;9.01;61.02;102019.97;5006070;28;19933;-77
2022/10/12 02:22:34;;;;;;;;;;;;;;;8.84;61.10;102027.63;4993801;28;20003;-77
2022/10/12 02:25:01;;;;;;;;;;;;;;;8.92;60.55;102015.59;5004919;28;20013;-77
2022/10/12 02:27:27;;;;;;;;;;;;;;;8.98;60.48;102018.22;5007215;28;19936;-77
2022/10/12 02:29:52;;;;;;;;;;;;;;;8.84;60.63;102022.47;5006163;28;19925;-77
2022/10/12 02:32:27;;;;;;;;;;;;;;;8.89;61.11;102025.94;5005393;28;19921;-77
2022/10/12 02:34:55;;;;;;;;;;;;;;;8.93;60.77;102019.91;5006807;28;20023;-77
2022/10/12 02:37:21;;;;;;;;;;;;;;;8.95;61.04;102010.41;5004297;28;20747;-77
2022/10/12 02:39:50;;;;;;;;;;;;;;;8.95;60.93;102013.00;5009305;28;20012;-77
2022/10/12 02:42:20;;;;;;;;;;;;;;;8.90;61.01;102008.66;5009239;28;20004;-77
2022/10/12 02:44:46;;;;;;;;;;;;;;;8.98;60.94;102005.25;5005036;28;20398;-76
2022/10/12 02:47:13;;;;;;;;;;;;;;;8.89;60.56;102007.78;5008972;28;20040;-77
2022/10/12 02:49:39;;;;;;;;;;;;;;;8.80;60.66;102007.75;4992592;28;20473;-77
2022/10/12 02:52:05;;;;;;;;;;;;;;;8.88;60.96;102008.66;5002858;28;19928;-77
2022/10/12 02:54:30;;;;;;;;;;;;;;;8.75;60.68;102014.63;5005277;28;19922;-77
2022/10/12 02:56:55;;;;;;;;;;;;;;;8.70;61.06;102016.31;4989215;28;19928;-76
2022/10/12 02:59:21;;;;;;;;;;;;;;;9.00;60.35;102002.69;4990387;28;20019;-77
2022/10/12 03:01:46;;;;;;;;;;;;;;;8.96;60.60;102006.09;5006477;28;19937;-76
2022/10/12 03:04:11;;;;;;;;;;;;;;;8.86;59.55;102004.34;5003160;28;21757;-77
2022/10/12 03:06:36;;;;;;;;;;;;;;;8.76;60.29;102006.00;5005664;28;19937;-77
2022/10/12 03:09:04;;;;;;;;;;;;;;;8.78;60.34;101994.78;5007633;28;19929;-77
2022/10/12 03:11:29;;;;;;;;;;;;;;;8.85;60.08;101998.28;5005634;28;19929;-77
2022/10/12 03:13:54;;;;;;;;;;;;;;;8.89;60.18;101983.63;5008378;28;20405;-77
2022/10/12 03:16:20;;;;;;;;;;;;;;;8.80;60.98;101984.41;5007831;28;19976;-76
2022/10/12 03:18:45;;;;;;;;;;;;;;;8.77;59.87;101980.09;5004301;28;19925;-77
2022/10/12 03:21:11;;;;;;;;;;;;;;;8.84;59.90;101975.81;5005516;28;19951;-77
2022/10/12 03:23:36;;;;;;;;;;;;;;;8.72;59.93;101978.34;5006013;28;20365;-77
2022/10/12 03:26:02;;;;;;;;;;;;;;;8.73;59.35;101973.19;5003550;28;19925;-76
2022/10/12 03:28:27;;;;;;;;;;;;;;;8.59;59.99;101979.97;5006441;28;20341;-77
2022/10/12 03:30:53;;;;;;;;;;;;;;;8.75;60.32;101975.75;5004622;28;20002;-77
2022/10/12 03:33:18;;;;;;;;;;;;;;;8.69;59.59;101979.19;5000499;28;20056;-76
2022/10/12 03:35:44;;;;;;;;;;;;;;;8.67;59.76;101991.28;5008328;28;19921;-77
2022/10/12 03:38:09;;;;;;;;;;;;;;;8.71;59.81;101984.41;5009621;28;19980;-77
2022/10/12 03:40:35;;;;;;;;;;;;;;;8.71;60.08;101982.66;4991911;28;19932;-76
2022/10/12 03:43:00;;;;;;;;;;;;;;;8.57;60.25;101983.41;5000687;28;19930;-77
2022/10/12 03:45:25;;;;;;;;;;;;;;;8.77;59.92;101984.44;5008411;28;19961;-77
2022/10/12 03:47:51;;;;;;;;;;;;;;;8.77;60.50;101976.66;5006854;28;20434;-77
2022/10/12 03:50:16;;;;;;;;;;;;;;;8.91;60.23;101987.97;5008008;28;19929;-77
2022/10/12 03:52:41;;;;;;;;;;;;;;;8.82;60.07;101976.66;5002178;28;19925;-76
2022/10/12 03:55:07;;;;;;;;;;;;;;;8.76;59.56;101974.91;5005218;28;19924;-77
2022/10/12 03:57:32;;;;;;;;;;;;;;;8.72;60.09;101973.16;5009186;28;19967;-77
2022/10/12 03:59:57;;;;;;;;;;;;;;;8.77;59.49;101979.25;4999939;28;19944;-77
2022/10/12 04:02:23;;;;;;;;;;;;;;;8.82;60.26;101972.34;5008317;28;19929;-77
2022/10/12 04:04:48;;;;;;;;;;;;;;;8.64;60.73;101978.31;5005867;28;19975;-77
2022/10/12 04:07:13;;;;;;;;;;;;;;;8.72;61.05;101976.63;5006059;28;19921;-77
2022/10/12 04:09:38;;;;;;;;;;;;;;;8.78;61.22;101973.19;5009085;28;20010;-77
2022/10/12 04:12:04;;;;;;;;;;;;;;;8.78;61.62;101971.47;5006257;28;19922;-77
2022/10/12 04:14:29;;;;;;;;;;;;;;;8.80;62.08;101972.34;5011152;28;19925;-77
2022/10/12 04:16:54;;;;;;;;;;;;;;;8.88;62.45;101979.28;4995789;28;19930;-77
2022/10/12 04:19:20;;;;;;;;;;;;;;;8.89;62.48;101975.84;5008811;28;19948;-77
2022/10/12 04:21:45;;;;;;;;;;;;;;;8.81;62.64;101975.81;5007773;28;19976;-77
2022/10/12 04:24:11;;;;;;;;;;;;;;;8.93;62.88;101973.28;5006095;28;19922;-77
2022/10/12 04:26:36;;;;;;;;;;;;;;;8.80;63.52;101969.75;5015274;28;19926;-77
2022/10/12 04:29:01;;;;;;;;;;;;;;;9.08;63.10;101972.47;5009493;28;19979;-77
2022/10/12 04:31:26;;;;;;;;;;;;;;;8.86;63.74;101970.66;5008296;28;20017;-77
2022/10/12 04:33:55;;;;;;;;;;;;;;;8.85;64.57;101974.97;5007984;28;19929;-77
2022/10/12 04:36:21;;;;;;;;;;;;;;;8.96;64.20;101975.00;5011363;28;19926;-77
2022/10/12 04:38:46;;;;;;;;;;;;;;;8.98;63.94;101978.50;5007875;28;19945;-77
2022/10/12 04:41:12;;;;;;;;;;;;;;;8.87;64.07;101978.44;5007563;28;19930;-77
2022/10/12 04:43:37;;;;;;;;;;;;;;;9.03;63.64;101979.38;5011842;28;19921;-77
2022/10/12 04:46:02;;;;;;;;;;;;;;;9.03;63.89;101981.97;4994526;28;19918;-77
2022/10/12 04:48:28;;;;;;;;;;;;;;;8.99;64.43;101982.78;5015986;28;19922;-77
2022/10/12 04:50:53;;;;;;;;;;;;;;;9.07;64.26;101981.97;5007573;28;19926;-77
2022/10/12 04:53:18;;;;;;;;;;;;;;;9.13;63.71;101978.53;5009635;28;19932;-77
2022/10/12 04:55:44;;;;;;;;;;;;;;;9.12;64.22;101979.41;5009276;28;19918;-76
2022/10/12 04:58:09;;;;;;;;;;;;;;;9.09;63.62;101977.69;5009652;28;20003;-77
2022/10/12 05:00:34;;;;;;;;;;;;;;;9.03;63.82;101977.66;5002734;28;19925;-77
2022/10/12 05:02:59;;;;;;;;;;;;;;;9.03;63.64;101975.06;5007665;28;19933;-77
2022/10/12 05:05:25;;;;;;;;;;;;;;;8.97;64.45;101976.75;5009081;28;19925;-77
2022/10/12 05:07:50;;;;;;;;;;;;;;;8.97;64.19;101969.84;4992101;28;19921;-77
2022/10/12 05:10:16;;;;;;;;;;;;;;;8.99;64.26;101970.72;5007618;28;19921;-77
2022/10/12 05:12:42;;;;;;;;;;;;;;;8.91;64.83;101975.00;4992616;28;19936;-77
2022/10/12 05:15:07;;;;;;;;;;;;;;;8.88;64.88;101972.41;5011615;28;19925;-77
2022/10/12 05:17:32;;;;;;;;;;;;;;;8.86;64.37;101970.66;5010299;28;19925;-77
2022/10/12 05:19:58;;;;;;;;;;;;;;;8.83;64.75;101970.66;5007526;28;19922;-77
2022/10/12 05:22:23;;;;;;;;;;;;;;;8.92;64.35;101965.50;5007996;28;20031;-77
2022/10/12 05:24:48;;;;;;;;;;;;;;;8.81;64.48;101960.25;5004223;28;21127;-77
2022/10/12 05:27:14;;;;;;;;;;;;;;;8.99;64.20;101959.47;5003718;28;19926;-77
2022/10/12 05:29:39;;;;;;;;;;;;;;;8.92;64.92;101963.75;5004208;28;19929;-77
2022/10/12 05:32:04;;;;;;;;;;;;;;;9.00;64.58;101959.50;5008405;28;19933;-77
2022/10/12 05:34:29;;;;;;;;;;;;;;;9.04;64.30;101955.19;5009356;28;20629;-77
2022/10/12 05:36:55;;;;;;;;;;;;;;;9.18;64.16;101958.72;5007278;28;19941;-78
2022/10/12 05:39:20;;;;;;;;;;;;;;;9.11;64.30;101960.41;5003323;28;20034;-77
2022/10/12 05:41:45;;;;;;;;;;;;;;;9.17;64.71;101952.66;5005557;28;19928;-77
2022/10/12 05:44:10;;;;;;;;;;;;;;;9.22;64.18;101953.53;5006536;28;20003;-78
2022/10/12 05:46:36;;;;;;;;;;;;;;;9.08;64.75;101951.75;5008136;28;19925;-78
2022/10/12 05:49:01;;;;;;;;;;;;;;;8.95;64.96;101956.00;4994227;28;20396;-78
2022/10/12 05:51:26;;;;;;;;;;;;;;;9.09;64.46;101954.34;5003751;28;19936;-77
2022/10/12 05:53:52;;;;;;;;;;;;;;;9.07;64.81;101957.78;5004388;28;20083;-77
2022/10/12 05:56:17;;;;;;;;;;;;;;;9.10;64.69;101965.56;5007184;28;20354;-77
2022/10/12 05:58:43;;;;;;;;;;;;;;;9.02;64.70;101972.44;5005913;28;19961;-77
2022/10/12 06:01:10;;;;;;;;;;;;;;;9.12;63.95;101967.31;5005579;28;19922;-78
2022/10/12 06:03:35;;;;;;;;;;;;;;;9.03;64.38;101969.00;5006237;28;20411;-78
2022/10/12 06:06:00;;;;;;;;;;;;;;;9.11;63.96;101972.50;5006764;28;19992;-78
2022/10/12 06:08:26;;;;;;;;;;;;;;;9.15;63.97;101969.06;5005832;28;20267;-78
2022/10/12 06:10:51;;;;;;;;;;;;;;;9.05;64.04;101975.06;5009175;28;20012;-78
2022/10/12 06:13:18;;;;;;;;;;;;;;;9.10;63.71;101973.34;5011626;28;19928;-78
2022/10/12 06:15:47;;;;;;;;;;;;;;;9.14;63.50;101975.09;5007412;28;20766;-77
2022/10/12 06:18:12;;;;;;;;;;;;;;;9.04;64.05;101981.97;5010081;28;19953;-78
2022/10/12 06:20:38;;;;;;;;;;;;;;;9.16;63.19;101978.56;4998348;28;20405;-78
2022/10/12 06:23:03;;;;;;;;;;;;;;;9.20;63.89;101969.94;5011094;28;19928;-78
2022/10/12 06:25:28;;;;;;;;;;;;;;;9.19;63.60;101978.56;5001499;28;20291;-77
2022/10/12 06:27:53;;;;;;;;;;;;;;;9.16;63.91;101974.22;5006988;28;19932;-77
2022/10/12 06:30:19;;;;;;;;;;;;;;;9.21;63.42;101971.69;5004005;28;19929;-77
2022/10/12 06:32:44;;;;;;;;;;;;;;;9.10;63.53;101974.22;5007344;28;19975;-77
2022/10/12 06:35:09;;;;;;;;;;;;;;;9.21;63.49;101985.50;5006152;28;19964;-77
2022/10/12 06:37:35;;;;;;;;;;;;;;;9.13;63.36;101975.94;4975772;28;20301;-77
2022/10/12 06:40:00;;;;;;;;;;;;;;;9.09;63.60;101979.41;5006998;28;20024;-77
2022/10/12 06:42:25;;;;;;;;;;;;;;;8.99;64.15;101983.66;5006544;28;20401;-78
2022/10/12 06:44:51;;;;;;;;;;;;;;;9.05;64.23;101986.28;5016740;28;19921;-78
2022/10/12 06:47:16;;;;;;;;;;;;;;;9.19;63.65;101986.34;4994674;28;19933;-77
2022/10/12 06:49:41;;;;;;;;;;;;;;;9.21;63.49;101984.63;5001412;28;20448;-77
2022/10/12 06:52:06;;;;;;;;;;;;;;;9.32;63.33;101985.53;4993634;28;19925;-77
2022/10/12 06:54:32;;;;;;;;;;;;;;;9.19;64.05;101975.97;5004259;28;19925;-77
2022/10/12 06:56:57;;;;;;;;;;;;;;;9.13;63.60;101978.53;4994168;28;19925;-77
2022/10/12 06:59:22;;;;;;;;;;;;;;;9.26;63.84;101978.59;4997196;28;20040;-77
2022/10/12 07:01:48;;;;;;;;;;;;;;;9.37;63.79;101970.84;5011902;28;19929;-78
2022/10/12 07:04:14;;;;;;;;;;;;;;;9.30;63.57;101980.38;4992757;28;19917;-77
2022/10/12 07:06:39;;;;;;;;;;;;;;;9.21;64.09;101979.47;5007441;28;19968;-77
2022/10/12 07:09:04;;;;;;;;;;;;;;;9.26;64.29;101982.91;5005272;28;19965;-77
2022/10/12 07:11:30;;;;;;;;;;;;;;;9.12;64.77;101985.47;5002210;28;19937;-78
2022/10/12 07:13:56;;;;;;;;;;;;;;;9.19;64.37;101983.75;5003413;28;19921;-77
2022/10/12 07:16:21;;;;;;;;;;;;;;;9.30;64.60;101984.69;5011712;28;19917;-77
2022/10/12 07:18:46;;;;;;;;;;;;;;;9.15;64.81;101987.22;5008961;28;19928;-77
2022/10/12 07:21:12;;;;;;;;;;;;;;;9.24;64.82;101995.91;5012695;28;19925;-77
2022/10/12 07:23:37;;;;;;;;;;;;;;;9.27;64.90;101993.31;5003597;28;19975;-77
2022/10/12 07:26:03;;;;;;;;;;;;;;;9.26;65.11;101990.69;5006126;28;19921;-77
2022/10/12 07:28:28;;;;;;;;;;;;;;;9.28;64.88;101992.44;5007675;28;19968;-78
2022/10/12 07:30:58;;;;;;;;;;;;;;;9.19;65.16;101991.53;5004248;28;19929;-77
2022/10/12 07:33:23;;;;;;;;;;;;;;;9.30;64.99;101989.88;5001854;28;19928;-77
2022/10/12 07:35:53;;;;;;;;;;;;;;;9.39;64.82;101996.81;4989265;28;20458;-78
2022/10/12 07:38:18;;;;;;;;;;;;;;;9.40;65.04;101999.38;5009653;28;20379;-77
2022/10/12 07:40:44;;;;;;;;;;;;;;;9.45;64.95;101995.09;5013648;28;20036;-77
2022/10/12 07:43:09;;;;;;;;;;;;;;;9.42;64.86;102002.00;5014577;28;20358;-77
2022/10/12 07:45:34;;;;;;;;;;;;;;;9.37;65.06;101994.19;5009563;28;19930;-78
2022/10/12 07:48:00;;;;;;;;;;;;;;;9.35;65.30;102001.09;5005570;28;20340;-77
2022/10/12 07:50:25;;;;;;;;;;;;;;;9.49;64.78;101988.16;5010742;28;19936;-78
2022/10/12 07:52:50;;;;;;;;;;;;;;;9.47;64.83;101984.72;5008083;28;19925;-78
2022/10/12 07:55:15;;;;;;;;;;;;;;;9.47;64.77;101988.19;5009521;28;20301;-78
2022/10/12 07:57:43;;;;;;;;;;;;;;;9.48;64.79;101981.28;4995995;28;19936;-78
2022/10/12 08:00:08;;;;;;;;;;;;;;;9.42;65.33;101986.44;5009257;28;19964;-78
2022/10/12 08:02:34;;;;;;;;;;;;;;;9.51;65.36;101981.28;5015052;28;19944;-77
2022/10/12 08:05:00;;;;;;;;;;;;;;;9.53;65.53;101985.59;5008129;28;20382;-77
2022/10/12 08:07:25;;;;;;;;;;;;;;;9.69;65.31;101982.16;4990998;28;19929;-78
2022/10/12 08:09:50;;;;;;;;;;;;;;;9.68;65.29;101985.66;5008919;28;20044;-78
2022/10/12 08:12:15;;;;;;;;;;;;;;;9.68;65.42;101987.38;5010704;28;19976;-78
2022/10/12 08:14:41;;;;;;;;;;;;;;;9.69;64.95;101976.97;4992566;28;19922;-78
2022/10/12 08:17:06;;;;;;;;;;;;;;;9.79;65.35;101973.56;4992293;28;19984;-78
2022/10/12 08:19:34;;;;;;;;;;;;;;;9.75;65.52;101976.16;5010156;28;19961;-78
2022/10/12 08:21:59;;;;;;;;;;;;;;;9.92;65.64;101979.66;5006385;28;19930;-78
2022/10/12 08:24:24;;;;;;;;;;;;;;;9.73;66.14;101983.03;5009407;28;19930;-77
2022/10/12 08:26:50;;;;;;;;;;;;;;;9.88;66.11;101978.75;5003910;28;19921;-78
2022/10/12 08:29:15;;;;;;;;;;;;;;;10.04;65.24;101979.69;5006112;28;20404;-78
2022/10/12 08:31:40;;;;;;;;;;;;;;;10.02;65.57;101976.19;5006709;28;19980;-77
2022/10/12 08:34:06;;;;;;;;;;;;;;;9.98;66.06;101978.78;5008433;28;19984;-78
2022/10/12 08:36:31;;;;;;;;;;;;;;;10.09;66.10;101971.88;5008727;28;19976;-78
2022/10/12 08:38:56;;;;;;;;;;;;;;;10.07;65.91;101966.69;5008197;28;20341;-78
2022/10/12 08:41:32;;;;;;;;;;;;;;;10.13;66.68;101963.22;5001068;28;19928;-78
2022/10/12 08:44:23;;;;;;;;;;;;;;;10.21;65.63;101962.34;5007173;28;19933;-77
2022/10/12 08:46:53;;;;;;;;;;;;;;;10.30;65.31;101957.16;4986959;28;19939;-77
2022/10/12 08:49:21;;;;;;;;;;;;;;;10.29;65.31;101963.22;5010609;28;19921;-79
2022/10/12 08:51:54;;;;;;;;;;;;;;;10.32;64.58;101952.81;4990426;28;19975;-78
2022/10/12 08:54:21;;;;;;;;;;;;;;;10.44;63.54;101952.81;5003476;28;19926;-78
2022/10/12 08:56:47;;;;;;;;;;;;;;;10.49;64.29;101951.94;5006917;28;20386;-78
2022/10/12 08:59:14;;;;;;;;;;;;;;;10.43;64.32;101956.25;5007923;28;20004;-78
2022/10/12 09:01:49;;;;;;;;;;;;;;;10.54;63.96;101955.38;5007284;28;19921;-77
2022/10/12 09:04:23;;;;;;;;;;;;;;;10.61;64.28;101949.31;5008313;28;19913;-77
2022/10/12 09:06:55;;;;;;;;;;;;;;;10.71;65.04;101943.22;5015036;28;19927;-78
2022/10/12 09:09:30;;;;;;;;;;;;;;;10.69;65.25;101950.16;5006959;28;19935;-78
2022/10/12 09:12:13;;;;;;;;;;;;;;;10.74;65.58;101945.81;5015273;28;19929;-77
2022/10/12 09:14:40;;;;;;;;;;;;;;;10.77;64.12;101944.06;5009689;28;19945;-77
2022/10/12 09:17:20;;;;;;;;;;;;;;;10.81;63.87;101943.19;4996857;28;19921;-78
2022/10/12 09:19:46;;;;;;;;;;;;;;;10.83;64.25;101943.16;4990548;28;19914;-78
2022/10/12 09:22:20;;;;;;;;;;;;;;;10.85;63.12;101937.09;5016142;28;19914;-77
2022/10/12 09:24:47;;;;;;;;;;;;;;;10.88;63.52;101936.22;4995400;28;19953;-78
2022/10/12 09:27:14;;;;;;;;;;;;;;;10.93;63.51;101937.97;5010485;28;19929;-78
2022/10/12 09:29:39;;;;;;;;;;;;;;;10.93;63.03;101937.09;5004608;28;19929;-78
2022/10/12 09:32:26;;;;;;;;;;;;;;;10.94;63.84;101944.00;4989443;28;20318;-79
2022/10/12 09:34:51;;;;;;;;;;;;;;;10.95;64.59;101946.59;4992646;28;20209;-78
2022/10/12 09:37:18;;;;;;;;;;;;;;;10.99;65.14;101950.94;4994544;28;19918;-79
2022/10/12 09:39:44;;;;;;;;;;;;;;;10.95;63.45;101946.59;5007093;28;19925;-78
2022/10/12 09:42:10;;;;;;;;;;;;;;;11.01;63.23;101946.56;5001498;28;19929;-79
2022/10/12 09:44:39;;;;;;;;;;;;;;;11.13;63.11;101948.25;5002523;28;20016;-78
2022/10/12 09:47:05;;;;;;;;;;;;;;;11.17;63.91;101951.72;4993000;28;19929;-77
2022/10/12 09:49:44;;;;;;;;;;;;;;;11.26;63.14;101955.16;5009655;28;19971;-78
2022/10/12 09:52:11;;;;;;;;;;;;;;;11.24;63.71;101940.38;5007911;28;20047;-77
2022/10/12 09:54:39;;;;;;;;;;;;;;;11.37;62.86;101952.50;4995648;28;20445;-77
2022/10/12 09:57:05;;;;;;;;;;;;;;;11.36;62.62;101945.56;4991928;28;20393;-77
2022/10/12 09:59:33;;;;;;;;;;;;;;;11.46;62.16;101944.66;5005604;28;19925;-77
2022/10/12 10:02:17;;;;;;;;;;;;;;;11.48;62.29;101941.16;5007240;28;19929;-77
2022/10/12 10:04:43;;;;;;;;;;;;;;;11.54;61.92;101948.06;5005923;28;19921;-77
2022/10/12 10:07:26;;;;;;;;;;;;;;;11.57;62.37;101941.09;5005258;28;19918;-77
2022/10/12 10:10:12;;;;;;;;;;;;;;;11.62;62.17;101941.09;5010732;28;19953;-78
2022/10/12 10:12:48;;;;;;;;;;;;;;;11.69;61.62;101937.56;5010351;28;19932;-77
2022/10/12 10:15:18;;;;;;;;;;;;;;;11.71;62.20;101938.41;5007294;28;19928;-78
2022/10/12 10:17:47;;;;;;;;;;;;;;;11.77;62.65;101940.13;5007626;28;20366;-77
2022/10/12 10:20:21;;;;;;;;;;;;;;;11.72;61.83;101936.66;5006849;28;19929;-77
2022/10/12 10:22:47;;;;;;;;;;;;;;;11.84;60.78;101933.97;5007394;28;19914;-77
2022/10/12 10:25:18;;;;;;;;;;;;;;;11.88;62.25;101941.78;5003435;28;19918;-77
2022/10/12 10:27:43;;;;;;;;;;;;;;;11.86;62.42;101945.25;5006992;28;19926;-78
2022/10/12 10:30:20;;;;;;;;;;;;;;;11.89;62.02;101940.88;5006372;28;19925;-77
2022/10/12 10:32:46;;;;;;;;;;;;;;;11.96;60.89;101937.34;5006449;28;20449;-77
2022/10/12 10:35:11;;;;;;;;;;;;;;;12.01;61.77;101942.50;5006423;28;19930;-77
2022/10/12 10:37:50;;;;;;;;;;;;;;;11.99;61.81;101941.66;5007578;28;19918;-76
2022/10/12 10:40:22;;;;;;;;;;;;;;;11.97;61.28;101939.09;5011826;28;19917;-77
2022/10/12 10:42:50;;;;;;;;;;;;;;;11.98;62.22;101946.00;5016609;28;20024;-77
2022/10/12 10:45:26;;;;;;;;;;;;;;;11.99;62.50;101939.94;5010093;28;19929;-77
2022/10/12 10:48:00;;;;;;;;;;;;;;;12.00;61.45;101939.06;5004480;28;20016;-78
2022/10/12 10:50:33;;;;;;;;;;;;;;;12.03;61.96;101941.66;5011168;28;19976;-78
2022/10/12 10:53:00;;;;;;;;;;;;;;;12.06;62.22;101951.16;4985689;28;19957;-77
2022/10/12 10:55:31;;;;;;;;;;;;;;;12.08;61.46;101945.06;5007513;28;20267;-78
2022/10/12 10:58:00;;;;;;;;;;;;;;;12.09;61.67;101935.53;5011601;28;19921;-78
2022/10/12 11:00:27;;;;;;;;;;;;;;;12.14;61.59;101931.13;5006808;28;20498;-78
2022/10/12 11:02:55;;;;;;;;;;;;;;;12.16;61.17;101928.50;5006073;28;19932;-77
2022/10/12 11:05:34;;;;;;;;;;;;;;;12.19;61.91;101920.66;5004854;28;20020;-77
2022/10/12 11:08:01;;;;;;;;;;;;;;;12.25;61.84;101917.97;4987597;28;19969;-77
2022/10/12 11:10:40;;;;;;;;;;;;;;;12.29;62.20;101924.91;5009981;28;19930;-78
2022/10/12 11:13:13;;;;;;;;;;;;;;;12.37;61.27;101925.69;5008497;28;19925;-78
2022/10/12 11:16:05;;;;;;;;;;;;;;;12.42;62.01;101926.53;5005764;28;20066;-77
2022/10/12 11:18:50;;;;;;;;;;;;;;;12.46;61.06;101931.69;4986960;28;20408;-77
2022/10/12 11:21:22;;;;;;;;;;;;;;;12.43;62.48;101929.09;5008049;28;20291;-77
2022/10/12 11:24:06;;;;;;;;;;;;;;;12.50;61.57;101915.13;5012687;28;19921;-78
2022/10/12 11:26:41;;;;;;;;;;;;;;;12.57;60.32;101908.16;5012321;28;20012;-73
2022/10/12 11:29:11;;;;;;;;;;;;;;;12.61;60.31;101909.81;5008167;28;19928;-74
2022/10/12 11:31:38;;;;;;;;;;;;;;;12.63;60.52;101902.88;5007196;28;19917;-73
2022/10/12 11:34:06;;;;;;;;;;;;;;;12.68;60.61;101894.97;5005059;28;19980;-73
2022/10/12 11:36:32;;;;;;;;;;;;;;;12.69;60.70;101900.16;5007440;28;19925;-73
2022/10/12 11:39:00;;;;;;;;;;;;;;;12.73;60.62;101894.03;5006215;28;19929;-74
2022/10/12 11:41:28;;;;;;;;;;;;;;;12.78;60.87;101887.03;4993228;28;19926;-73
2022/10/12 11:43:56;;;;;;;;;;;;;;;12.76;61.30;101883.56;5006607;28;19928;-73
2022/10/12 11:46:27;;;;;;;;;;;;;;;12.79;60.97;101875.72;5009242;28;20458;-73
2022/10/12 11:48:59;;;;;;;;;;;;;;;12.78;60.65;101876.59;5005872;28;19924;-73
2022/10/12 11:51:24;;;;;;;;;;;;;;;12.79;60.69;101867.03;5004604;28;20374;-73
2022/10/12 11:53:56;;;;;;;;;;;;;;;12.83;60.93;101872.19;5002927;28;19972;-73
2022/10/12 11:56:28;;;;;;;;;;;;;;;12.85;61.00;101866.94;5000546;28;20387;-73
2022/10/12 11:58:57;;;;;;;;;;;;;;;12.85;61.43;101859.13;4993242;28;19944;-74
2022/10/12 12:01:28;;;;;;;;;;;;;;;12.80;60.78;101851.38;5006870;28;20273;-73
2022/10/12 12:03:59;;;;;;;;;;;;;;;12.86;60.62;101855.66;5005322;28;19930;-73
2022/10/12 12:06:27;;;;;;;;;;;;;;;12.88;60.71;101851.25;5007751;28;20563;-73
2022/10/12 12:08:57;;;;;;;;;;;;;;;12.89;60.00;101848.66;5006375;28;19979;-73
2022/10/12 12:11:27;;;;;;;;;;;;;;;12.89;61.00;101845.19;5008817;28;19925;-73
2022/10/12 12:14:11;;;;;;;;;;;;;;;12.92;61.38;101840.78;5007343;28;19929;-73
2022/10/12 12:16:41;;;;;;;;;;;;;;;12.91;61.27;101843.41;5008391;28;19917;-73
2022/10/12 12:19:12;;;;;;;;;;;;;;;12.93;60.70;101833.81;5005228;28;20283;-73
2022/10/12 12:21:56;;;;;;;;;;;;;;;12.95;61.37;101842.50;5004506;28;19929;-73
2022/10/12 12:24:22;;;;;;;;;;;;;;;13.00;60.83;101827.63;5008170;28;19922;-73
2022/10/12 12:26:47;;;;;;;;;;;;;;;13.01;60.92;101826.75;4996586;28;19937;-74
2022/10/12 12:29:18;;;;;;;;;;;;;;;13.05;60.94;101828.41;5008865;28;20298;-73
2022/10/12 12:31:52;;;;;;;;;;;;;;;13.05;61.12;101823.19;5008924;28;20298;-73
2022/10/12 12:34:17;;;;;;;;;;;;;;;13.08;60.99;101820.53;5006525;28;19917;-73
2022/10/12 12:36:44;;;;;;;;;;;;;;;13.10;61.22;101824.88;4994397;28;20251;-73
2022/10/12 12:39:23;;;;;;;;;;;;;;;13.13;61.19;101816.16;5008649;28;19929;-73
2022/10/12 12:41:51;;;;;;;;;;;;;;;13.14;61.78;101823.94;5015834;28;20469;-73
2022/10/12 12:44:35;;;;;;;;;;;;;;;13.15;61.68;101811.75;5004899;28;19937;-73
2022/10/12 12:47:01;;;;;;;;;;;;;;;13.17;62.22;101813.47;5016614;28;20471;-73